Historique des mesures à Cassis (13260), France
Quotidien Résumé Janvier 31, 2018 Unités:  Métrique    US   Métrique/US
« Précédent (Jour)
Suivant (Jour) »
Quotidien Hebdomadaire Mensuel Annuel Période au choix
  Maximum: Minimum: Moyenne:
Température: TemperatureC °C 7.3 °C 10 °C
Point de rosée: DewpointC °C 4.1 °C 5.8 °C
Humidité: Humidity % 64 % 71 %
Vitesse du vent: 0 km/h 0 km/h 2.4 km/h
Rafales: 0 km/h - -
Vent:- - West
Pression: PressurehPa hPa 1013.4 hPa -
Précipitations: 0.0 mm    
Historical Graphs
 
 
Mesures pour : Janvier 31, 2018
Heure Temperature Point de rosée Pression Vent Vitesse du vent Rafales Humidité Pluie (par heure) Conditions
TemperatureC °C DewpointC °C PressurehPa hPa Calm     Humidity % HourlyPrecipMM mm SoftwareType W/m2
00:12 10.4 °C 6.3 °C 1023.2 hPa Calm     76 % 0.0 mm open2300-1.11 W/m2
01:12 10.3 °C 6.2 °C 1023.2 hPa NW 5.1 km/h 5.6 km/h 76 % 0.0 mm open2300-1.11 W/m2
02:12 9.3 °C 5.2 °C 1022.6 hPa NNW 6.9 km/h 9.3 km/h 76 % 0.0 mm open2300-1.11 W/m2
03:12 8.6 °C 4.9 °C 1022.2 hPa Calm   12.7 km/h 78 % 0.0 mm open2300-1.11 W/m2
04:12 8.7 °C 5.2 °C 1021.6 hPa Calm     79 % 0.0 mm open2300-1.11 W/m2
05:12 8.6 °C 5.2 °C 1020.9 hPa Calm     79 % 0.0 mm open2300-1.11 W/m2
06:12 8.3 °C 4.9 °C 1020.9 hPa Calm     79 % 0.0 mm open2300-1.11 W/m2
07:12 7.9 °C 4.5 °C 1020.9 hPa Calm     79 % 0.0 mm open2300-1.11 W/m2
08:12 7.3 °C 4.1 °C 1021.2 hPa Calm     80 % 0.0 mm open2300-1.11 W/m2
09:12 8.5 °C 5.3 °C 1020.9 hPa Calm     80 % 0.0 mm open2300-1.11 W/m2
10:12 10.3 °C 6.8 °C 1020.5 hPa Calm   5.1 km/h 79 % 0.0 mm open2300-1.11 W/m2
11:12 11.2 °C 7.7 °C 1020.5 hPa South 5.1 km/h 5.1 km/h 79 % 0.0 mm open2300-1.11 W/m2
12:12 12.6 °C 8.4 °C 1020.2 hPa West 6.4 km/h 6.4 km/h 76 % 0.0 mm open2300-1.11 W/m2
13:12 12.1 °C 6.6 °C 1019.2 hPa NW 7.6 km/h 8 km/h 69 % 0.0 mm open2300-1.11 W/m2
14:12 12.2 °C 6.2 °C 1018.2 hPa West 5.1 km/h 6.4 km/h 67 % 0.0 mm open2300-1.11 W/m2
15:12 12.3 °C 5.7 °C 1017.8 hPa West 12.2 km/h 20.9 km/h 64 % 0.0 mm open2300-1.11 W/m2
16:12 11.6 °C 5.7 °C 1017.2 hPa NNW 2.3 km/h 20.9 km/h 67 % 0.0 mm open2300-1.11 W/m2
17:12 11.5 °C 6.0 °C 1016.1 hPa Calm     69 % 0.0 mm open2300-1.11 W/m2
18:12 11.6 °C 6.3 °C 1015.8 hPa Calm     70 % 0.0 mm open2300-1.11 W/m2
19:12 11.6 °C 6.6 °C 1015.5 hPa Calm     71 % 0.0 mm open2300-1.11 W/m2
20:12 11.4 °C 6.6 °C 1015.1 hPa NNE 5.6 km/h 5.6 km/h 72 % 0.0 mm open2300-1.11 W/m2
21:12 11.5 °C 6.7 °C 1014.1 hPa Calm     72 % 0.0 mm open2300-1.11 W/m2
22:12 10.9 °C 6.3 °C 1013.8 hPa Calm     73 % 0.0 mm open2300-1.11 W/m2
23:12 10.9 °C 6.4 °C 1013.4 hPa NW 3.4 km/h 3.4 km/h 74 % 0.0 mm open2300-1.11 W/m2
Observations météo à CASSIS
WU-History script by Weather Underground - 1 mb